Time;durP1;ratioP1;P1;durP2;ratioP2;P2;SDS_P1;SDS_P2;PMS_P1;PMS_P2;Temp;Humidity;BMP_temperature;BMP_pressure;BME280_temperature;BME280_humidity;BME280_pressure;Samples;Min_cycle;Max_cycle;Signal;HPM_P1;HPM_P2
2021/06/01 00:00:46;;;;;;;5.80;5.30;;;;;;;;;;5014808;28;20445;-65
2021/06/01 00:03:15;;;;;;;6.40;5.27;;;;;;;;;;5004980;28;20971;-66
2021/06/01 00:05:43;;;;;;;4.97;4.50;;;;;;;;;;4997582;28;20482;-66
2021/06/01 00:08:10;;;;;;;8.20;4.47;;;;;;;;;;5013616;28;20493;-65
2021/06/01 00:10:37;;;;;;;5.40;4.97;;;;;;;;;;5006455;28;20455;-64
2021/06/01 00:13:03;;;;;;;6.50;5.60;;;;;;;;;;5001259;28;20454;-67
2021/06/01 00:15:30;;;;;;;5.73;5.23;;;;;;;;;;5008137;28;20472;-65
2021/06/01 00:17:56;;;;;;;5.20;4.80;;;;;;;;;;5017029;28;20536;-64
2021/06/01 00:20:23;;;;;;;4.83;4.30;;;;;;;;;;5012168;28;20494;-65
2021/06/01 00:22:51;;;;;;;6.03;4.70;;;;;;;;;;4998244;28;20467;-66
2021/06/01 00:25:18;;;;;;;4.70;4.40;;;;;;;;;;4998389;28;20819;-66
2021/06/01 00:27:44;;;;;;;5.23;4.83;;;;;;;;;;5009724;28;20481;-66
2021/06/01 00:30:11;;;;;;;4.93;4.53;;;;;;;;;;5009763;28;20895;-65
2021/06/01 00:32:38;;;;;;;4.70;4.30;;;;;;;;;;5010259;28;20499;-63
2021/06/01 00:35:05;;;;;;;4.90;4.50;;;;;;;;;;5008112;28;20500;-64
2021/06/01 00:37:31;;;;;;;4.80;4.40;;;;;;;;;;5005834;28;20964;-63
2021/06/01 00:39:59;;;;;;;6.10;5.50;;;;;;;;;;4993826;28;20470;-63
2021/06/01 00:42:26;;;;;;;5.23;4.83;;;;;;;;;;5009454;28;20565;-62
2021/06/01 00:44:52;;;;;;;5.47;4.70;;;;;;;;;;5011965;28;20454;-62
2021/06/01 00:47:19;;;;;;;5.30;4.90;;;;;;;;;;5003893;28;20462;-62
2021/06/01 00:49:46;;;;;;;6.90;5.60;;;;;;;;;;5006627;28;20496;-62
2021/06/01 00:52:12;;;;;;;5.87;5.37;;;;;;;;;;5008665;28;20458;-62
2021/06/01 00:54:39;;;;;;;5.90;5.40;;;;;;;;;;4998057;28;20902;-62
2021/06/01 00:57:08;;;;;;;5.93;5.23;;;;;;;;;;5007835;28;20465;-63
2021/06/01 00:59:34;;;;;;;5.83;5.33;;;;;;;;;;4992119;28;21009;-61
2021/06/01 01:02:02;;;;;;;5.23;4.63;;;;;;;;;;5003606;28;20492;-62
2021/06/01 01:04:29;;;;;;;5.67;5.13;;;;;;;;;;5011826;28;20476;-62
2021/06/01 01:07:03;;;;;;;7.00;5.73;;;;;;;;;;5002518;28;20557;-62
2021/06/01 01:09:32;;;;;;;5.60;4.70;;;;;;;;;;5011610;28;20484;-62
2021/06/01 01:12:01;;;;;;;5.23;4.73;;;;;;;;;;5010269;28;20480;-62
2021/06/01 01:14:30;;;;;;;4.87;4.47;;;;;;;;;;5012097;28;20556;-62
2021/06/01 01:16:58;;;;;;;5.93;5.40;;;;;;;;;;4999281;28;20475;-63
2021/06/01 01:19:44;;;;;;;5.27;4.87;;;;;;;;;;5008971;28;20477;-62
2021/06/01 01:22:10;;;;;;;6.23;5.70;;;;;;;;;;5005767;28;20462;-63
2021/06/01 01:24:41;;;;;;;5.30;4.90;;;;;;;;;;4992725;28;22258;-62
2021/06/01 01:27:14;;;;;;;6.80;4.90;;;;;;;;;;4997120;28;20962;-62
2021/06/01 01:29:43;;;;;;;8.20;5.57;;;;;;;;;;4992152;28;20489;-62
2021/06/01 01:32:12;;;;;;;5.73;5.13;;;;;;;;;;5007023;28;20474;-62
2021/06/01 01:34:41;;;;;;;5.63;5.13;;;;;;;;;;4999643;28;20477;-62
2021/06/01 01:37:09;;;;;;;6.93;5.07;;;;;;;;;;5005547;28;20461;-62
2021/06/01 01:39:41;;;;;;;6.60;5.63;;;;;;;;;;5010065;28;21098;-63
2021/06/01 01:42:11;;;;;;;8.30;5.97;;;;;;;;;;4999692;28;20497;-62
2021/06/01 01:44:47;;;;;;;5.07;4.60;;;;;;;;;;5003320;28;20793;-62
2021/06/01 01:49:57;;;;;;;6.33;5.50;;;;;;;;;;5008037;28;20465;-63
2021/06/01 01:52:23;;;;;;;7.30;4.60;;;;;;;;;;4997692;28;20450;-62
2021/06/01 01:54:51;;;;;;;5.10;4.70;;;;;;;;;;5008334;28;20485;-62
2021/06/01 01:57:18;;;;;;;6.30;4.90;;;;;;;;;;5009762;28;20469;-63
2021/06/01 01:59:44;;;;;;;5.20;4.80;;;;;;;;;;4996098;28;20491;-62
2021/06/01 02:02:12;;;;;;;5.73;5.07;;;;;;;;;;5010520;28;21069;-62
2021/06/01 02:04:39;;;;;;;5.83;5.30;;;;;;;;;;4996064;28;20481;-61
2021/06/01 02:07:07;;;;;;;5.77;4.97;;;;;;;;;;5013098;28;20548;-63
2021/06/01 02:09:34;;;;;;;5.90;5.40;;;;;;;;;;5012009;28;20490;-62
2021/06/01 02:12:00;;;;;;;6.00;5.50;;;;;;;;;;5002305;28;20515;-63
2021/06/01 02:14:27;;;;;;;5.50;5.00;;;;;;;;;;5005323;28;20484;-62
2021/06/01 02:16:57;;;;;;;5.00;4.50;;;;;;;;;;5000494;28;20892;-63
2021/06/01 02:19:24;;;;;;;5.67;5.07;;;;;;;;;;5014237;28;20476;-63
2021/06/01 02:22:07;;;;;;;5.90;4.67;;;;;;;;;;5013738;28;20545;-62
2021/06/01 02:24:37;;;;;;;5.93;5.40;;;;;;;;;;5006506;28;20457;-63
2021/06/01 02:27:08;;;;;;;5.13;4.63;;;;;;;;;;5004236;28;20469;-63
2021/06/01 02:29:37;;;;;;;5.33;4.83;;;;;;;;;;5013795;28;20996;-62
2021/06/01 02:32:05;;;;;;;5.87;5.07;;;;;;;;;;5012947;28;20952;-63
2021/06/01 02:34:33;;;;;;;4.90;4.50;;;;;;;;;;5003729;28;20599;-63
2021/06/01 02:37:00;;;;;;;5.77;5.20;;;;;;;;;;5001047;28;20477;-63
2021/06/01 02:39:27;;;;;;;5.10;4.60;;;;;;;;;;5005759;28;20543;-63
2021/06/01 02:41:55;;;;;;;4.90;4.50;;;;;;;;;;5013445;28;20449;-62
2021/06/01 02:44:22;;;;;;;6.33;5.73;;;;;;;;;;5008071;28;20667;-62
2021/06/01 02:46:49;;;;;;;5.50;5.00;;;;;;;;;;5005065;28;20814;-62
2021/06/01 02:49:17;;;;;;;5.03;4.63;;;;;;;;;;5019838;23;20842;-65
2021/06/01 02:51:44;;;;;;;5.90;5.30;;;;;;;;;;4973520;28;20464;-64
2021/06/01 02:54:11;;;;;;;6.53;5.90;;;;;;;;;;4975073;28;20491;-66
2021/06/01 02:56:38;;;;;;;5.17;4.70;;;;;;;;;;4975095;28;20475;-67
2021/06/01 02:59:08;;;;;;;6.77;5.30;;;;;;;;;;4982206;28;20484;-67
2021/06/01 03:01:35;;;;;;;5.63;4.67;;;;;;;;;;4976024;28;20461;-67
2021/06/01 03:04:02;;;;;;;6.33;5.73;;;;;;;;;;4983788;28;20460;-67
2021/06/01 03:06:30;;;;;;;5.60;4.90;;;;;;;;;;4974422;28;20463;-68
2021/06/01 03:08:56;;;;;;;5.37;4.87;;;;;;;;;;4969853;28;20460;-66
2021/06/01 03:11:23;;;;;;;5.37;4.97;;;;;;;;;;4969041;28;20470;-66
2021/06/01 03:13:51;;;;;;;5.30;4.80;;;;;;;;;;4976990;28;20833;-67
2021/06/01 03:16:20;;;;;;;8.13;5.10;;;;;;;;;;4973234;28;21066;-67
2021/06/01 03:18:46;;;;;;;5.97;5.47;;;;;;;;;;4980838;28;20505;-66
2021/06/01 03:21:14;;;;;;;6.57;5.03;;;;;;;;;;4984169;28;20489;-70
2021/06/01 03:23:40;;;;;;;7.07;5.57;;;;;;;;;;4974596;28;20459;-66
2021/06/01 03:26:08;;;;;;;6.20;4.90;;;;;;;;;;4981445;28;20490;-69
2021/06/01 03:28:35;;;;;;;5.63;5.23;;;;;;;;;;4988648;28;20470;-68
2021/06/01 03:31:02;;;;;;;5.13;4.60;;;;;;;;;;4977030;28;20479;-67
2021/06/01 03:33:30;;;;;;;5.40;5.00;;;;;;;;;;4986664;28;20989;-66
2021/06/01 03:35:57;;;;;;;7.20;5.47;;;;;;;;;;4993262;28;20870;-66
2021/06/01 03:38:24;;;;;;;6.40;4.63;;;;;;;;;;4973141;28;20474;-67
2021/06/01 03:40:50;;;;;;;5.67;5.10;;;;;;;;;;4973844;28;20946;-66
2021/06/01 03:43:17;;;;;;;5.30;4.80;;;;;;;;;;4957936;28;20456;-66
2021/06/01 03:45:44;;;;;;;5.70;5.20;;;;;;;;;;4959454;28;20468;-70
2021/06/01 03:48:10;;;;;;;5.00;4.60;;;;;;;;;;4974771;28;20462;-67
2021/06/01 03:50:38;;;;;;;4.47;4.17;;;;;;;;;;4973390;28;20502;-67
2021/06/01 03:53:06;;;;;;;5.27;4.80;;;;;;;;;;4974410;28;20462;-67
2021/06/01 03:55:32;;;;;;;5.53;4.60;;;;;;;;;;4972107;28;20487;-68
2021/06/01 03:57:59;;;;;;;5.20;4.80;;;;;;;;;;4988046;28;20470;-67
2021/06/01 04:00:28;;;;;;;4.77;4.33;;;;;;;;;;4976595;28;20479;-67
2021/06/01 04:02:55;;;;;;;5.40;4.90;;;;;;;;;;4981069;28;20550;-67
2021/06/01 04:05:21;;;;;;;5.10;4.60;;;;;;;;;;4972935;28;20554;-67
2021/06/01 04:07:49;;;;;;;5.10;4.70;;;;;;;;;;4982531;28;20501;-67
2021/06/01 04:10:16;;;;;;;6.47;5.87;;;;;;;;;;4983786;28;20486;-67
2021/06/01 04:12:43;;;;;;;5.63;5.13;;;;;;;;;;4978027;28;20474;-69
2021/06/01 04:15:10;;;;;;;5.30;4.80;;;;;;;;;;4984360;28;20487;-67
2021/06/01 04:17:37;;;;;;;5.33;4.93;;;;;;;;;;4972884;28;20456;-67
2021/06/01 04:20:04;;;;;;;6.03;5.53;;;;;;;;;;4977333;28;21068;-67
2021/06/01 04:22:31;;;;;;;6.20;5.47;;;;;;;;;;4968497;28;20471;-67
2021/06/01 04:24:59;;;;;;;5.73;5.23;;;;;;;;;;4975800;28;20462;-67
2021/06/01 04:27:25;;;;;;;5.27;4.87;;;;;;;;;;4975641;28;20471;-67
2021/06/01 04:29:52;;;;;;;5.70;5.17;;;;;;;;;;4987808;28;20490;-67
2021/06/01 04:32:19;;;;;;;5.50;5.00;;;;;;;;;;4973390;28;20455;-69
2021/06/01 04:34:46;;;;;;;5.73;5.23;;;;;;;;;;4980585;28;21022;-67
2021/06/01 04:37:12;;;;;;;5.77;5.20;;;;;;;;;;4981812;28;20505;-67
2021/06/01 04:39:39;;;;;;;5.70;5.20;;;;;;;;;;4974125;28;20483;-67
2021/06/01 04:42:07;;;;;;;5.07;4.63;;;;;;;;;;4970395;28;20462;-68
2021/06/01 04:44:34;;;;;;;5.20;4.80;;;;;;;;;;4972944;28;20997;-67
2021/06/01 04:47:01;;;;;;;5.77;5.30;;;;;;;;;;4976173;28;20467;-70
2021/06/01 04:49:27;;;;;;;6.10;5.50;;;;;;;;;;4972422;28;21005;-68
2021/06/01 04:51:54;;;;;;;5.23;4.73;;;;;;;;;;4973173;28;20475;-69
2021/06/01 04:54:20;;;;;;;5.63;5.23;;;;;;;;;;4973410;28;21017;-69
2021/06/01 04:56:47;;;;;;;5.90;5.40;;;;;;;;;;4980693;28;20471;-69
2021/06/01 04:59:15;;;;;;;5.23;4.73;;;;;;;;;;4971717;28;21013;-69
2021/06/01 05:01:41;;;;;;;6.03;5.43;;;;;;;;;;4971927;28;20503;-68
2021/06/01 05:04:08;;;;;;;7.00;6.40;;;;;;;;;;4974371;28;20463;-68
2021/06/01 05:06:35;;;;;;;8.40;6.47;;;;;;;;;;4982873;28;20467;-68
2021/06/01 05:09:03;;;;;;;6.67;5.97;;;;;;;;;;4979781;28;20485;-69
2021/06/01 05:11:30;;;;;;;6.00;5.40;;;;;;;;;;4988888;28;20458;-68
2021/06/01 05:13:56;;;;;;;5.97;5.37;;;;;;;;;;4982822;28;20494;-68
2021/06/01 05:16:24;;;;;;;5.50;5.10;;;;;;;;;;4971654;28;20867;-68
2021/06/01 05:18:52;;;;;;;7.83;5.77;;;;;;;;;;4982902;28;20474;-68
2021/06/01 05:21:19;;;;;;;6.53;5.77;;;;;;;;;;4972398;28;20463;-68
2021/06/01 05:23:45;;;;;;;6.50;5.07;;;;;;;;;;4973924;28;20529;-68
2021/06/01 05:26:12;;;;;;;5.93;5.33;;;;;;;;;;4971424;28;20958;-67
2021/06/01 05:28:39;;;;;;;6.73;6.20;;;;;;;;;;4970332;28;20467;-68
2021/06/01 05:31:16;;;;;;;7.50;5.93;;;;;;;;;;4971919;28;20514;-68
2021/06/01 05:33:50;;;;;;;6.47;5.97;;;;;;;;;;4973147;28;20467;-69
2021/06/01 05:36:16;;;;;;;6.70;5.97;;;;;;;;;;4977257;28;20462;-67
2021/06/01 05:38:43;;;;;;;5.23;4.77;;;;;;;;;;4976659;28;20459;-68
2021/06/01 05:41:09;;;;;;;6.00;5.40;;;;;;;;;;4975494;28;20466;-69
2021/06/01 05:43:37;;;;;;;6.23;5.70;;;;;;;;;;4975932;28;20461;-72
2021/06/01 05:46:04;;;;;;;6.30;5.80;;;;;;;;;;4969159;28;20554;-69
2021/06/01 05:48:31;;;;;;;11.50;5.87;;;;;;;;;;4974937;28;20498;-70
2021/06/01 05:50:59;;;;;;;5.37;4.90;;;;;;;;;;4975303;28;20570;-71
2021/06/01 05:53:26;;;;;;;5.70;4.80;;;;;;;;;;4982683;28;20493;-70
2021/06/01 05:55:53;;;;;;;5.90;5.17;;;;;;;;;;4973612;28;20583;-71
2021/06/01 05:58:20;;;;;;;5.40;4.90;;;;;;;;;;4981852;28;20980;-71
2021/06/01 06:00:46;;;;;;;6.70;5.13;;;;;;;;;;4975098;28;21066;-71
2021/06/01 06:03:14;;;;;;;4.90;4.50;;;;;;;;;;4981041;28;20973;-70
2021/06/01 06:05:41;;;;;;;5.63;5.13;;;;;;;;;;4985464;28;20474;-71
2021/06/01 06:08:10;;;;;;;6.97;5.17;;;;;;;;;;4988122;28;20467;-71
2021/06/01 06:10:37;;;;;;;6.67;4.80;;;;;;;;;;4983201;28;21008;-71
2021/06/01 06:13:04;;;;;;;5.40;4.60;;;;;;;;;;4983793;28;20471;-71
2021/06/01 06:15:31;;;;;;;6.00;4.80;;;;;;;;;;4975066;28;20479;-71
2021/06/01 06:17:58;;;;;;;6.10;5.10;;;;;;;;;;4976560;28;20467;-70
2021/06/01 06:20:25;;;;;;;4.90;4.50;;;;;;;;;;4975871;28;20754;-71
2021/06/01 06:22:52;;;;;;;5.23;4.73;;;;;;;;;;4981097;28;20950;-71
2021/06/01 06:25:20;;;;;;;5.40;4.90;;;;;;;;;;4975022;28;20466;-70
2021/06/01 06:27:46;;;;;;;5.87;5.27;;;;;;;;;;4968487;28;20522;-71
2021/06/01 06:30:13;;;;;;;5.63;5.07;;;;;;;;;;4963857;28;20482;-71
2021/06/01 06:32:46;;;;;;;6.80;4.90;;;;;;;;;;4973269;28;20474;-68
2021/06/01 06:35:12;;;;;;;4.87;4.30;;;;;;;;;;4975643;28;20502;-71
2021/06/01 06:37:39;;;;;;;5.17;4.10;;;;;;;;;;4991258;28;20516;-70
2021/06/01 06:40:07;;;;;;;5.37;3.77;;;;;;;;;;4987415;28;20471;-68
2021/06/01 06:42:36;;;;;;;4.07;3.70;;;;;;;;;;4991179;28;20509;-67
2021/06/01 06:45:03;;;;;;;4.60;3.97;;;;;;;;;;4977179;28;20969;-69
2021/06/01 06:47:42;;;;;;;6.93;4.37;;;;;;;;;;4974080;28;20459;-69
2021/06/01 06:50:09;;;;;;;7.20;4.50;;;;;;;;;;4973863;28;20487;-65
2021/06/01 06:52:36;;;;;;;11.77;5.87;;;;;;;;;;4975574;28;20459;-66
2021/06/01 06:55:02;;;;;;;8.30;5.10;;;;;;;;;;4975080;28;20487;-64
2021/06/01 06:57:29;;;;;;;11.37;4.50;;;;;;;;;;4973901;28;20459;-65
2021/06/01 06:59:57;;;;;;;10.90;4.87;;;;;;;;;;4960048;28;20478;-65
2021/06/01 07:02:25;;;;;;;7.37;4.47;;;;;;;;;;4973038;28;20451;-66
2021/06/01 07:04:52;;;;;;;9.07;4.50;;;;;;;;;;4975036;28;20448;-65
2021/06/01 07:07:18;;;;;;;12.53;5.40;;;;;;;;;;4974425;28;20868;-66
2021/06/01 07:09:45;;;;;;;10.30;4.53;;;;;;;;;;4967181;28;20480;-65
2021/06/01 07:12:13;;;;;;;8.97;4.40;;;;;;;;;;4957766;28;20452;-68
2021/06/01 07:14:40;;;;;;;9.00;5.50;;;;;;;;;;4973847;28;20483;-67
2021/06/01 07:17:08;;;;;;;6.53;4.53;;;;;;;;;;4973609;28;20455;-67
2021/06/01 07:19:35;;;;;;;7.33;4.77;;;;;;;;;;4974516;28;20483;-65
2021/06/01 07:22:01;;;;;;;5.43;3.80;;;;;;;;;;4966959;28;20457;-67
2021/06/01 07:24:28;;;;;;;1.93;1.83;;;;;;;;;;4955615;28;20499;-67
2021/06/01 07:26:55;;;;;;;2.87;2.50;;;;;;;;;;4965166;28;20448;-67
2021/06/01 07:29:21;;;;;;;3.03;2.77;;;;;;;;;;4974399;28;20501;-66
2021/06/01 07:31:50;;;;;;;2.77;2.57;;;;;;;;;;4974621;28;20451;-66
2021/06/01 07:34:18;;;;;;;2.90;2.60;;;;;;;;;;4973939;28;20490;-67
2021/06/01 07:36:45;;;;;;;3.17;2.50;;;;;;;;;;4973111;28;20981;-67
2021/06/01 07:39:11;;;;;;;2.27;2.07;;;;;;;;;;4974672;28;20479;-66
2021/06/01 07:41:38;;;;;;;2.47;2.27;;;;;;;;;;4974648;28;20817;-67
2021/06/01 07:44:05;;;;;;;3.17;2.80;;;;;;;;;;4965185;28;20464;-67
2021/06/01 07:46:32;;;;;;;3.20;2.43;;;;;;;;;;4973413;28;20506;-66
2021/06/01 07:48:59;;;;;;;3.57;2.53;;;;;;;;;;4973162;28;20455;-67
2021/06/01 07:51:31;;;;;;;2.87;2.50;;;;;;;;;;4961702;28;20451;-65
2021/06/01 07:53:58;;;;;;;3.80;2.30;;;;;;;;;;4974469;28;20966;-66
2021/06/01 07:56:24;;;;;;;2.97;2.67;;;;;;;;;;4973628;28;20462;-66
2021/06/01 07:58:51;;;;;;;3.13;2.60;;;;;;;;;;4974990;28;20459;-66
2021/06/01 08:01:18;;;;;;;4.03;2.60;;;;;;;;;;4973042;28;20452;-66
2021/06/01 08:03:44;;;;;;;2.97;2.60;;;;;;;;;;4974002;28;20447;-65
2021/06/01 08:06:11;;;;;;;3.27;2.40;;;;;;;;;;4972767;28;21022;-66
2021/06/01 08:08:39;;;;;;;3.00;2.70;;;;;;;;;;4973700;28;20970;-66
2021/06/01 08:11:06;;;;;;;4.73;2.60;;;;;;;;;;4974060;28;20455;-67
2021/06/01 08:13:33;;;;;;;3.30;2.47;;;;;;;;;;4965699;28;20448;-67
2021/06/01 08:16:01;;;;;;;4.07;2.73;;;;;;;;;;4965840;28;20487;-67
2021/06/01 08:18:31;;;;;;;2.87;2.67;;;;;;;;;;4973235;28;20946;-68
2021/06/01 08:21:03;;;;;;;3.17;2.43;;;;;;;;;;4973078;28;20479;-67
2021/06/01 08:23:29;;;;;;;3.30;2.97;;;;;;;;;;4973592;28;20897;-68
2021/06/01 08:25:58;;;;;;;4.00;2.40;;;;;;;;;;4971816;28;20473;-68
2021/06/01 08:28:24;;;;;;;2.80;2.30;;;;;;;;;;4969230;28;20468;-68
2021/06/01 08:30:52;;;;;;;3.37;2.50;;;;;;;;;;4973511;28;20482;-67
2021/06/01 08:33:18;;;;;;;3.03;2.73;;;;;;;;;;4973653;28;20549;-68
2021/06/01 08:35:45;;;;;;;2.33;2.13;;;;;;;;;;4972724;28;20494;-67
2021/06/01 08:38:12;;;;;;;4.43;2.90;;;;;;;;;;4966045;28;20455;-67
2021/06/01 08:40:39;;;;;;;4.17;2.90;;;;;;;;;;4965834;28;20483;-67
2021/06/01 08:43:17;;;;;;;2.63;2.43;;;;;;;;;;4961234;28;20455;-67
2021/06/01 08:45:48;;;;;;;6.90;2.83;;;;;;;;;;4960071;28;20449;-68
2021/06/01 08:48:15;;;;;;;6.60;2.93;;;;;;;;;;4959980;28;20462;-66
2021/06/01 08:50:42;;;;;;;4.27;3.10;;;;;;;;;;4963474;28;20479;-64
2021/06/01 08:53:08;;;;;;;4.67;2.50;;;;;;;;;;4960230;28;20951;-64
2021/06/01 08:55:35;;;;;;;4.40;2.70;;;;;;;;;;4961040;28;20902;-64
2021/06/01 08:58:03;;;;;;;2.80;2.60;;;;;;;;;;4960565;28;21050;-63
2021/06/01 09:00:31;;;;;;;5.00;2.70;;;;;;;;;;4962800;28;20475;-63
2021/06/01 09:03:07;;;;;;;4.07;2.70;;;;;;;;;;5017862;23;20516;-68
2021/06/01 09:05:34;;;;;;;3.10;2.33;;;;;;;;;;5011765;28;20453;-69
2021/06/01 09:08:03;;;;;;;3.07;2.77;;;;;;;;;;5001857;28;20454;-68
2021/06/01 09:10:38;;;;;;;2.73;2.27;;;;;;;;;;4997638;28;20550;-69
2021/06/01 09:21:35;;;;;;;2.53;2.33;;;;;;;;;;4998142;28;20938;-71
2021/06/01 09:24:03;;;;;;;2.87;2.40;;;;;;;;;;5004937;28;20451;-70
2021/06/01 09:26:40;;;;;;;3.00;2.30;;;;;;;;;;4997759;28;21111;-70
2021/06/01 09:29:06;;;;;;;2.63;2.43;;;;;;;;;;5011446;28;20485;-70
2021/06/01 09:31:34;;;;;;;2.60;2.40;;;;;;;;;;5001123;28;20862;-71
2021/06/01 09:34:01;;;;;;;5.63;2.97;;;;;;;;;;4992044;28;20450;-71
2021/06/01 09:36:28;;;;;;;3.07;2.33;;;;;;;;;;4995668;28;21119;-71
2021/06/01 09:38:55;;;;;;;3.20;2.63;;;;;;;;;;5010992;28;20540;-71
2021/06/01 09:41:26;;;;;;;3.03;2.73;;;;;;;;;;4992177;28;20450;-71
2021/06/01 09:43:53;;;;;;;2.93;2.60;;;;;;;;;;5003561;28;20477;-72
2021/06/01 09:46:21;;;;;;;2.83;2.50;;;;;;;;;;5010792;28;20507;-71
2021/06/01 09:48:49;;;;;;;4.17;2.73;;;;;;;;;;5009760;28;20458;-71
2021/06/01 09:51:26;;;;;;;3.07;2.70;;;;;;;;;;5010998;28;20460;-71
2021/06/01 09:53:55;;;;;;;2.53;2.33;;;;;;;;;;5010155;28;20573;-72
2021/06/01 09:56:22;;;;;;;2.63;2.43;;;;;;;;;;5000716;28;20866;-70
2021/06/01 09:58:50;;;;;;;3.40;2.67;;;;;;;;;;5011048;28;20920;-72
2021/06/01 10:01:17;;;;;;;2.70;2.50;;;;;;;;;;4995975;28;20470;-70
2021/06/01 10:03:46;;;;;;;4.43;3.00;;;;;;;;;;4991516;28;20497;-70
2021/06/01 10:06:14;;;;;;;4.90;3.27;;;;;;;;;;4991204;28;20454;-70
2021/06/01 10:08:42;;;;;;;4.63;3.00;;;;;;;;;;4992870;28;20957;-69
2021/06/01 10:11:10;;;;;;;2.93;2.63;;;;;;;;;;5011132;28;20452;-69
2021/06/01 10:13:38;;;;;;;3.90;2.83;;;;;;;;;;5011401;28;20761;-70
2021/06/01 10:16:06;;;;;;;4.10;2.80;;;;;;;;;;5003654;28;21031;-70
2021/06/01 10:18:33;;;;;;;3.67;2.87;;;;;;;;;;4995015;28;21008;-69
2021/06/01 10:21:00;;;;;;;3.07;2.67;;;;;;;;;;4994106;28;20937;-70
2021/06/01 10:23:30;;;;;;;3.30;3.00;;;;;;;;;;5010695;28;20473;-70
2021/06/01 10:25:57;;;;;;;2.90;2.70;;;;;;;;;;5012810;28;20480;-69
2021/06/01 10:28:27;;;;;;;3.00;2.80;;;;;;;;;;5013377;28;20449;-69
2021/06/01 10:30:56;;;;;;;4.47;3.57;;;;;;;;;;5000285;28;20463;-69
2021/06/01 10:33:22;;;;;;;4.40;3.60;;;;;;;;;;4994834;28;20477;-68
2021/06/01 10:36:01;;;;;;;5.23;3.60;;;;;;;;;;4994533;28;20493;-69
2021/06/01 10:44:34;;;;;;;3.70;2.57;;;;;;;;;;5013394;28;20468;-69
2021/06/01 10:50:08;;;;;;;5.53;3.10;;;;;;;;;;5005432;28;20509;-67
2021/06/01 10:52:35;;;;;;;2.90;2.70;;;;;;;;;;5013652;28;20487;-68
2021/06/01 10:55:06;;;;;;;10.10;4.30;;;;;;;;;;5008709;28;20492;-68
2021/06/01 10:57:51;;;;;;;4.73;3.20;;;;;;;;;;5013838;28;20811;-67
2021/06/01 11:03:06;;;;;;;5.70;4.40;;;;;;;;;;4993944;28;20561;-68
2021/06/01 11:05:53;;;;;;;4.43;3.33;;;;;;;;;;5009067;28;20484;-65
2021/06/01 11:08:34;;;;;;;4.33;3.27;;;;;;;;;;5013695;28;20837;-67
2021/06/01 11:11:21;;;;;;;8.30;7.40;;;;;;;;;;4994864;28;20453;-67
2021/06/01 11:13:47;;;;;;;7.13;5.73;;;;;;;;;;4994331;28;20528;-67
2021/06/01 11:16:14;;;;;;;3.73;3.20;;;;;;;;;;5002772;28;20485;-67
2021/06/01 11:18:45;;;;;;;5.30;3.70;;;;;;;;;;5010879;28;20448;-67
2021/06/01 11:21:30;;;;;;;3.90;3.23;;;;;;;;;;4998000;28;20824;-67
2021/06/01 11:24:33;;;;;;;7.37;6.27;;;;;;;;;;4995099;28;20528;-67
2021/06/01 11:32:51;;;;;;;4.40;4.00;;;;;;;;;;4995792;28;20467;-67
2021/06/01 11:35:22;;;;;;;3.40;3.10;;;;;;;;;;4995442;28;20824;-67
2021/06/01 11:37:56;;;;;;;4.90;3.67;;;;;;;;;;4997045;28;20461;-66
2021/06/01 11:40:28;;;;;;;4.63;3.30;;;;;;;;;;5002144;28;20983;-67
2021/06/01 11:43:07;;;;;;;3.77;3.40;;;;;;;;;;4992395;28;20481;-69
2021/06/01 11:45:49;;;;;;;3.47;3.17;;;;;;;;;;5001322;28;20433;-67
2021/06/01 11:50:56;;;;;;;4.27;3.63;;;;;;;;;;5010232;28;20443;-67
2021/06/01 11:51:17;;;;;;;3.37;3.07;;;;;;;;;;5006743;28;20438;-67
2021/06/01 11:53:51;;;;;;;4.00;3.60;;;;;;;;;;4994433;28;20957;-67
2021/06/01 11:56:33;;;;;;;3.80;3.23;;;;;;;;;;4993174;28;20486;-67
2021/06/01 12:02:03;;;;;;;3.80;3.50;;;;;;;;;;5004355;28;20480;-67
2021/06/01 12:04:46;;;;;;;3.37;2.80;;;;;;;;;;5005346;28;20504;-68
2021/06/01 12:12:52;;;;;;;3.57;2.93;;;;;;;;;;5005033;28;20532;-68
2021/06/01 12:18:21;;;;;;;8.10;3.13;;;;;;;;;;4990794;28;20438;-67
2021/06/01 12:20:48;;;;;;;3.63;3.03;;;;;;;;;;4998038;28;20573;-67
2021/06/01 12:23:31;;;;;;;3.90;3.20;;;;;;;;;;4994131;28;20472;-67
2021/06/01 12:25:59;;;;;;;3.60;2.83;;;;;;;;;;5009843;28;20449;-67
2021/06/01 12:31:15;;;;;;;3.20;2.90;;;;;;;;;;4992941;28;20473;-67
2021/06/01 12:33:41;;;;;;;3.87;3.10;;;;;;;;;;5008779;28;20695;-67
2021/06/01 12:44:33;;;;;;;2.60;2.40;;;;;;;;;;5008415;28;20480;-66
2021/06/01 12:47:11;;;;;;;4.13;3.00;;;;;;;;;;4996782;28;20441;-66
2021/06/01 13:12:34;;;;;;;2.53;2.20;;;;;;;;;;4992540;28;20442;-66
2021/06/01 13:20:48;;;;;;;3.30;2.67;;;;;;;;;;5011989;28;20422;-66
2021/06/01 13:32:06;;;;;;;3.67;2.67;;;;;;;;;;5009655;28;20436;-66
2021/06/01 13:40:12;;;;;;;3.10;2.80;;;;;;;;;;5011243;28;20451;-67
2021/06/01 13:48:35;;;;;;;2.50;2.30;;;;;;;;;;5010790;28;20434;-69
2021/06/01 13:51:12;;;;;;;4.30;2.80;;;;;;;;;;5011262;28;20489;-69
2021/06/01 13:56:26;;;;;;;3.40;3.10;;;;;;;;;;5010662;28;20496;-69
2021/06/01 13:59:01;;;;;;;3.80;3.23;;;;;;;;;;5011106;28;20465;-69
2021/06/01 14:01:34;;;;;;;4.73;3.00;;;;;;;;;;5015453;28;20444;-69
2021/06/01 14:09:43;;;;;;;2.90;2.70;;;;;;;;;;4995267;28;20406;-69
2021/06/01 14:15:21;;;;;;;4.27;3.03;;;;;;;;;;4995224;28;20468;-69
2021/06/01 14:21:03;;;;;;;3.73;3.07;;;;;;;;;;4994996;28;20429;-69
2021/06/01 14:38:02;;;;;;;2.67;2.47;;;;;;;;;;4997030;28;20470;-68
2021/06/01 15:49:46;;;;;;;2.83;2.43;;;;;;;;;;4975666;28;20414;-61
2021/06/01 15:52:42;;;;;;;5.00;2.77;;;;;;;;;;4976097;28;20451;-62
2021/06/01 16:11:57;;;;;;;2.83;2.10;;;;;;;;;;4974729;28;20466;-61
2021/06/01 16:14:26;;;;;;;4.10;2.00;;;;;;;;;;4974768;28;20579;-62
2021/06/01 16:22:47;;;;;;;2.20;2.00;;;;;;;;;;4981444;28;20812;-61
2021/06/01 16:33:36;;;;;;;2.27;1.93;;;;;;;;;;4986071;28;20443;-61
2021/06/01 16:41:54;;;;;;;2.30;1.47;;;;;;;;;;4975697;28;20431;-61
2021/06/01 16:44:38;;;;;;;1.90;1.70;;;;;;;;;;4975684;28;20444;-63
2021/06/01 17:03:59;;;;;;;3.10;2.03;;;;;;;;;;4989204;28;20430;-61
2021/06/01 17:06:30;;;;;;;2.17;1.80;;;;;;;;;;4987276;28;20483;-61
2021/06/01 17:09:07;;;;;;;1.73;1.40;;;;;;;;;;4985605;28;20927;-61
2021/06/01 17:11:36;;;;;;;2.30;2.00;;;;;;;;;;4986481;28;20463;-61
2021/06/01 17:14:03;;;;;;;3.33;1.43;;;;;;;;;;4988806;28;20462;-62
2021/06/01 17:16:34;;;;;;;2.67;1.20;;;;;;;;;;4986593;28;20493;-61
2021/06/01 17:35:55;;;;;;;2.57;1.43;;;;;;;;;;4976621;28;20510;-61
2021/06/01 17:38:21;;;;;;;1.70;1.50;;;;;;;;;;4977020;28;20467;-62
2021/06/01 17:40:55;;;;;;;1.47;1.37;;;;;;;;;;4977233;28;20455;-61
2021/06/01 17:43:23;;;;;;;3.07;2.77;;;;;;;;;;4976901;28;20459;-62
2021/06/01 17:45:50;;;;;;;4.80;2.00;;;;;;;;;;4976618;28;20458;-62
2021/06/01 17:48:30;;;;;;;7.23;4.87;;;;;;;;;;4976910;28;20463;-62
2021/06/01 17:50:57;;;;;;;2.63;2.40;;;;;;;;;;4977344;28;20439;-62
2021/06/01 17:53:25;;;;;;;3.13;1.90;;;;;;;;;;4976827;28;20451;-62
2021/06/01 17:55:53;;;;;;;2.43;1.50;;;;;;;;;;4975754;28;21017;-64
2021/06/01 17:58:23;;;;;;;3.60;1.70;;;;;;;;;;4975854;28;20948;-62
2021/06/01 18:00:50;;;;;;;3.07;1.63;;;;;;;;;;4976609;28;20459;-62
2021/06/01 18:03:18;;;;;;;4.53;1.70;;;;;;;;;;4976515;28;20451;-61
2021/06/01 18:05:47;;;;;;;2.70;1.60;;;;;;;;;;4975488;28;20570;-62
2021/06/01 18:08:18;;;;;;;2.47;1.93;;;;;;;;;;4976306;28;20461;-62
2021/06/01 18:11:35;;;;;;;4.43;2.27;;;;;;;;;;4976348;28;20446;-62
2021/06/01 19:51:06;;;;;;;4.20;3.87;;;;;;;;;;4966068;28;20447;-68
2021/06/01 19:53:35;;;;;;;4.50;3.93;;;;;;;;;;4973461;28;20509;-68
2021/06/01 19:56:02;;;;;;;5.23;4.23;;;;;;;;;;4968374;28;20495;-68
2021/06/01 19:58:30;;;;;;;4.43;4.03;;;;;;;;;;4986551;28;20455;-68
2021/06/01 20:00:57;;;;;;;5.27;4.77;;;;;;;;;;4974219;28;20448;-68
2021/06/01 20:03:24;;;;;;;5.33;4.67;;;;;;;;;;4991024;28;20575;-68
2021/06/01 20:05:51;;;;;;;4.83;4.43;;;;;;;;;;4992397;28;20865;-68
2021/06/01 20:08:18;;;;;;;4.73;3.87;;;;;;;;;;4975021;28;20459;-68
2021/06/01 20:10:50;;;;;;;4.43;4.13;;;;;;;;;;4973862;28;20459;-68
2021/06/01 20:13:17;;;;;;;4.43;4.03;;;;;;;;;;4989899;28;20462;-67
2021/06/01 20:15:44;;;;;;;4.33;3.93;;;;;;;;;;4985270;28;20499;-67
2021/06/01 20:18:12;;;;;;;5.30;4.77;;;;;;;;;;4989926;28;20557;-67
2021/06/01 20:20:42;;;;;;;4.70;4.30;;;;;;;;;;4993161;28;20450;-66
2021/06/01 20:23:09;;;;;;;4.10;3.80;;;;;;;;;;4991409;28;20458;-67
2021/06/01 20:25:38;;;;;;;4.40;4.00;;;;;;;;;;4977629;28;20851;-67
2021/06/01 20:28:08;;;;;;;5.30;4.00;;;;;;;;;;4983099;28;20473;-66
2021/06/01 20:30:37;;;;;;;4.67;2.63;;;;;;;;;;4971845;28;20506;-64
2021/06/01 20:33:08;;;;;;;3.27;2.50;;;;;;;;;;4972890;28;20817;-62
2021/06/01 20:35:35;;;;;;;2.63;1.83;;;;;;;;;;4972720;28;20533;-62
2021/06/01 20:38:02;;;;;;;2.97;2.43;;;;;;;;;;4972891;28;20490;-62
2021/06/01 20:40:28;;;;;;;2.10;1.90;;;;;;;;;;4974063;28;20938;-62
2021/06/01 20:42:56;;;;;;;3.13;2.03;;;;;;;;;;4972488;28;20463;-62
2021/06/01 20:45:27;;;;;;;3.00;2.43;;;;;;;;;;4971944;28;20479;-62
2021/06/01 20:47:55;;;;;;;4.63;2.50;;;;;;;;;;4973117;28;20471;-62
2021/06/01 20:50:22;;;;;;;3.80;2.13;;;;;;;;;;4972597;28;20479;-62
2021/06/01 20:52:48;;;;;;;3.23;2.30;;;;;;;;;;4976407;28;20454;-62
2021/06/01 20:55:15;;;;;;;2.80;2.60;;;;;;;;;;4976917;28;20483;-62
2021/06/01 20:57:44;;;;;;;2.77;2.43;;;;;;;;;;4973680;28;20503;-62
2021/06/01 21:00:12;;;;;;;2.40;2.20;;;;;;;;;;4972697;28;20455;-62